sensor_id;sensor_type;location;lat;lon;timestamp;pressure;altitude;pressure_sealevel;temperature;humidity
50087;BME280;35967;50.718;7.050;2022-11-20T00:08:00;100409.22;;;4.72;79.81
50087;BME280;35967;50.718;7.050;2022-11-20T00:18:03;100398.16;;;4.65;80.63
50087;BME280;35967;50.718;7.050;2022-11-20T00:28:07;100406.63;;;4.89;81.26
50087;BME280;35967;50.718;7.050;2022-11-20T00:38:10;100403.22;;;4.87;81.21
50087;BME280;35967;50.718;7.050;2022-11-20T00:48:15;100389.63;;;4.91;81.51
50087;BME280;35967;50.718;7.050;2022-11-20T00:58:18;100392.19;;;4.72;81.39
50087;BME280;35967;50.718;7.050;2022-11-20T01:08:22;100393.06;;;4.57;81.03
50087;BME280;35967;50.718;7.050;2022-11-20T01:18:25;100377.81;;;4.47;81.42
50087;BME280;35967;50.718;7.050;2022-11-20T01:28:30;100387.09;;;4.69;80.89
50087;BME280;35967;50.718;7.050;2022-11-20T01:38:34;100374.38;;;4.54;80.69
50087;BME280;35967;50.718;7.050;2022-11-20T01:48:43;100392.22;;;4.65;81.12
50087;BME280;35967;50.718;7.050;2022-11-20T01:58:51;100373.53;;;4.69;81.65
50087;BME280;35967;50.718;7.050;2022-11-20T02:08:57;100378.63;;;4.69;80.45
50087;BME280;35967;50.718;7.050;2022-11-20T02:19:01;100359.94;;;4.56;80.86
50087;BME280;35967;50.718;7.050;2022-11-20T02:29:06;100364.19;;;4.66;80.79
50087;BME280;35967;50.718;7.050;2022-11-20T02:39:11;100373.53;;;4.55;80.47
50087;BME280;35967;50.718;7.050;2022-11-20T02:49:20;100361.63;;;4.65;80.29
50087;BME280;35967;50.718;7.050;2022-11-20T02:59:23;100337.03;;;4.42;80.53
50087;BME280;35967;50.718;7.050;2022-11-20T03:09:27;100350.56;;;4.70;81.06
50087;BME280;35967;50.718;7.050;2022-11-20T03:19:30;100348.00;;;4.77;81.14
50087;BME280;35967;50.718;7.050;2022-11-20T03:29:36;100349.72;;;4.71;81.69
50087;BME280;35967;50.718;7.050;2022-11-20T03:39:39;100345.50;;;4.53;82.45
50087;BME280;35967;50.718;7.050;2022-11-20T03:49:43;100321.63;;;4.81;82.47
50087;BME280;35967;50.718;7.050;2022-11-20T03:59:46;100323.34;;;4.82;82.55
50087;BME280;35967;50.718;7.050;2022-11-20T04:09:50;100303.81;;;4.71;83.13
50087;BME280;35967;50.718;7.050;2022-11-20T04:19:53;100302.91;;;4.83;82.77
50087;BME280;35967;50.718;7.050;2022-11-20T04:29:58;100300.41;;;4.77;82.68
50087;BME280;35967;50.718;7.050;2022-11-20T04:40:01;100302.94;;;4.79;83.36
50087;BME280;35967;50.718;7.050;2022-11-20T04:50:07;100302.94;;;4.77;82.83
50087;BME280;35967;50.718;7.050;2022-11-20T05:00:11;100299.50;;;4.81;82.80
50087;BME280;35967;50.718;7.050;2022-11-20T05:10:16;100301.19;;;4.92;83.62
50087;BME280;35967;50.718;7.050;2022-11-20T05:20:19;100297.84;;;4.80;83.20
50087;BME280;35967;50.718;7.050;2022-11-20T05:30:23;100296.94;;;4.89;83.70
50087;BME280;35967;50.718;7.050;2022-11-20T05:40:27;100296.13;;;4.88;83.48
50087;BME280;35967;50.718;7.050;2022-11-20T05:50:31;100311.38;;;4.93;84.31
50087;BME280;35967;50.718;7.050;2022-11-20T06:00:34;100311.38;;;4.99;84.49
50087;BME280;35967;50.718;7.050;2022-11-20T06:10:38;100313.91;;;4.93;85.26
50087;BME280;35967;50.718;7.050;2022-11-20T06:20:41;100311.38;;;4.96;85.03
50087;BME280;35967;50.718;7.050;2022-11-20T06:30:46;100317.31;;;4.98;84.25
50087;BME280;35967;50.718;7.050;2022-11-20T06:40:49;100313.91;;;4.98;84.60
50087;BME280;35967;50.718;7.050;2022-11-20T06:50:53;100317.34;;;4.92;85.11
50087;BME280;35967;50.718;7.050;2022-11-20T07:00:58;100332.59;;;5.04;84.73
50087;BME280;35967;50.718;7.050;2022-11-20T07:11:04;100336.88;;;4.95;84.93
50087;BME280;35967;50.718;7.050;2022-11-20T07:21:10;100347.88;;;5.06;84.62
50087;BME280;35967;50.718;7.050;2022-11-20T07:31:14;100361.53;;;5.00;84.60
50087;BME280;35967;50.718;7.050;2022-11-20T07:41:20;100355.53;;;5.04;84.55
50087;BME280;35967;50.718;7.050;2022-11-20T07:51:24;100361.53;;;5.00;84.77
50087;BME280;35967;50.718;7.050;2022-11-20T08:01:27;100353.00;;;5.04;83.99
50087;BME280;35967;50.718;7.050;2022-11-20T08:11:32;100359.75;;;5.12;82.80
50087;BME280;35967;50.718;7.050;2022-11-20T08:21:52;100349.56;;;5.12;83.17
50087;BME280;35967;50.718;7.050;2022-11-20T08:31:56;100353.78;;;5.14;83.16
50087;BME280;35967;50.718;7.050;2022-11-20T08:41:59;100354.59;;;5.27;82.81
50087;BME280;35967;50.718;7.050;2022-11-20T08:52:04;100361.38;;;5.31;82.60
50087;BME280;35967;50.718;7.050;2022-11-20T09:02:07;100360.53;;;5.32;83.08
50087;BME280;35967;50.718;7.050;2022-11-20T09:12:12;100356.28;;;5.28;82.90
50087;BME280;35967;50.718;7.050;2022-11-20T09:22:15;100344.31;;;5.40;82.87
50087;BME280;35967;50.718;7.050;2022-11-20T09:32:20;100354.00;;;6.14;89.77
50087;BME280;35967;50.718;7.050;2022-11-20T09:42:31;100330.56;;;5.62;82.85
50087;BME280;35967;50.718;7.050;2022-11-20T09:52:46;100327.16;;;5.63;82.32
50087;BME280;35967;50.718;7.050;2022-11-20T10:02:57;100329.69;;;5.65;81.02
50087;BME280;35967;50.718;7.050;2022-11-20T10:13:13;100320.31;;;5.67;80.37
50087;BME280;35967;50.718;7.050;2022-11-20T10:23:31;100314.16;;;5.90;80.90
50087;BME280;35967;50.718;7.050;2022-11-20T10:33:42;100283.63;;;5.79;79.97
50087;BME280;35967;50.718;7.050;2022-11-20T10:44:11;100273.22;;;6.00;82.66
50087;BME280;35967;50.718;7.050;2022-11-20T10:54:22;100251.94;;;6.02;80.25
50087;BME280;35967;50.718;7.050;2022-11-20T11:04:36;100243.59;;;5.79;80.65
50087;BME280;35967;50.718;7.050;2022-11-20T11:14:49;100236.63;;;5.94;81.29
50087;BME280;35967;50.718;7.050;2022-11-20T11:24:53;100208.56;;;5.92;80.88
50087;BME280;35967;50.718;7.050;2022-11-20T11:35:02;100199.03;;;6.10;80.69
50087;BME280;35967;50.718;7.050;2022-11-20T11:45:06;100181.19;;;6.08;80.94
50087;BME280;35967;50.718;7.050;2022-11-20T11:55:15;100164.84;;;6.20;81.04
50087;BME280;35967;50.718;7.050;2022-11-20T12:05:22;100154.69;;;6.14;80.54
50087;BME280;35967;50.718;7.050;2022-11-20T12:15:30;100148.56;;;6.27;80.95
50087;BME280;35967;50.718;7.050;2022-11-20T12:25:36;100126.38;;;6.29;81.83
50087;BME280;35967;50.718;7.050;2022-11-20T12:35:50;100116.69;;;6.53;82.07
50087;BME280;35967;50.718;7.050;2022-11-20T12:46:21;100089.09;;;7.27;83.60
50087;BME280;35967;50.718;7.050;2022-11-20T12:56:36;100090.66;;;6.83;83.51
50087;BME280;35967;50.718;7.050;2022-11-20T13:06:44;100072.91;;;6.73;82.99
50087;BME280;35967;50.718;7.050;2022-11-20T13:16:52;100054.09;;;6.77;83.64
50087;BME280;35967;50.718;7.050;2022-11-20T13:27:05;100034.31;;;6.89;83.42
50087;BME280;35967;50.718;7.050;2022-11-20T13:37:30;100013.78;;;6.92;83.83
50087;BME280;35967;50.718;7.050;2022-11-20T13:47:35;99997.50;;;6.94;84.32
50087;BME280;35967;50.718;7.050;2022-11-20T14:08:23;99962.19;;;7.15;84.53
50087;BME280;35967;50.718;7.050;2022-11-20T14:18:28;99950.13;;;7.20;84.83
50087;BME280;35967;50.718;7.050;2022-11-20T14:28:31;99932.06;;;7.26;85.23
50087;BME280;35967;50.718;7.050;2022-11-20T14:38:36;99914.16;;;7.28;85.65
50087;BME280;35967;50.718;7.050;2022-11-20T14:48:40;99901.13;;;7.37;86.72
50087;BME280;35967;50.718;7.050;2022-11-20T14:58:55;99894.22;;;7.42;87.70
50087;BME280;35967;50.718;7.050;2022-11-20T15:08:59;99899.25;;;7.46;89.07
50087;BME280;35967;50.718;7.050;2022-11-20T15:19:12;99904.09;;;7.60;88.85
50087;BME280;35967;50.718;7.050;2022-11-20T15:29:19;99886.44;;;7.47;89.49
50087;BME280;35967;50.718;7.050;2022-11-20T15:39:25;99868.84;;;7.32;90.26
50087;BME280;35967;50.718;7.050;2022-11-20T15:49:28;99830.69;;;7.19;91.17
50087;BME280;35967;50.718;7.050;2022-11-20T15:59:32;99817.91;;;7.19;92.03
50087;BME280;35967;50.718;7.050;2022-11-20T16:09:36;99792.34;;;7.18;91.91
50087;BME280;35967;50.718;7.050;2022-11-20T16:19:40;99777.81;;;7.18;92.87
50087;BME280;35967;50.718;7.050;2022-11-20T16:29:43;99779.44;;;7.22;92.99
50087;BME280;35967;50.718;7.050;2022-11-20T16:39:47;99778.00;;;7.10;93.45
50087;BME280;35967;50.718;7.050;2022-11-20T16:49:50;99760.91;;;7.11;94.29
50087;BME280;35967;50.718;7.050;2022-11-20T16:59:54;99735.63;;;6.97;95.10
50087;BME280;35967;50.718;7.050;2022-11-20T17:10:03;99714.84;;;7.13;94.99
50087;BME280;35967;50.718;7.050;2022-11-20T17:20:09;99704.56;;;7.14;94.93
50087;BME280;35967;50.718;7.050;2022-11-20T17:30:13;99682.47;;;7.10;95.73
50087;BME280;35967;50.718;7.050;2022-11-20T17:40:18;99673.91;;;7.11;96.55
50087;BME280;35967;50.718;7.050;2022-11-20T17:50:27;99654.06;;;7.21;95.96
50087;BME280;35967;50.718;7.050;2022-11-20T18:00:32;99637.94;;;7.17;96.29
50087;BME280;35967;50.718;7.050;2022-11-20T18:10:36;99619.22;;;7.15;97.06
50087;BME280;35967;50.718;7.050;2022-11-20T18:20:40;99605.47;;;7.19;96.19
50087;BME280;35967;50.718;7.050;2022-11-20T18:30:43;99603.56;;;7.28;96.35
50087;BME280;35967;50.718;7.050;2022-11-20T18:40:47;99597.22;;;7.42;95.88
50087;BME280;35967;50.718;7.050;2022-11-20T18:50:50;99592.84;;;7.46;95.78
50087;BME280;35967;50.718;7.050;2022-11-20T19:00:54;99595.13;;;7.57;95.41
50087;BME280;35967;50.718;7.050;2022-11-20T19:11:04;99586.19;;;7.70;94.69
50087;BME280;35967;50.718;7.050;2022-11-20T19:21:10;99607.56;;;7.69;94.95
50087;BME280;35967;50.718;7.050;2022-11-20T19:31:16;99576.75;;;7.72;95.71
50087;BME280;35967;50.718;7.050;2022-11-20T19:41:28;99575.94;;;7.72;95.19
50087;BME280;35967;50.718;7.050;2022-11-20T19:51:33;99563.16;;;7.70;94.25
50087;BME280;35967;50.718;7.050;2022-11-20T20:01:38;99569.66;;;7.82;93.02
50087;BME280;35967;50.718;7.050;2022-11-20T20:11:44;99570.19;;;7.94;91.88
50087;BME280;35967;50.718;7.050;2022-11-20T20:21:48;99567.84;;;8.16;90.23
50087;BME280;35967;50.718;7.050;2022-11-20T20:31:51;99571.06;;;8.23;88.51
50087;BME280;35967;50.718;7.050;2022-11-20T20:41:56;99578.00;;;8.19;87.97
50087;BME280;35967;50.718;7.050;2022-11-20T20:51:59;99595.81;;;8.24;86.83
50087;BME280;35967;50.718;7.050;2022-11-20T21:02:04;99591.06;;;8.40;86.16
50087;BME280;35967;50.718;7.050;2022-11-20T21:12:07;99596.59;;;8.26;85.84
50087;BME280;35967;50.718;7.050;2022-11-20T21:22:12;99615.50;;;8.23;85.70
50087;BME280;35967;50.718;7.050;2022-11-20T21:32:15;99601.13;;;8.17;84.99
50087;BME280;35967;50.718;7.050;2022-11-20T21:42:20;99586.88;;;8.07;85.09
50087;BME280;35967;50.718;7.050;2022-11-20T21:52:23;99604.38;;;8.23;84.37
50087;BME280;35967;50.718;7.050;2022-11-20T22:02:27;99600.25;;;8.18;84.69
50087;BME280;35967;50.718;7.050;2022-11-20T22:12:30;99612.19;;;8.18;84.67
50087;BME280;35967;50.718;7.050;2022-11-20T22:22:35;99616.03;;;8.33;84.22
50087;BME280;35967;50.718;7.050;2022-11-20T22:32:38;99606.88;;;8.26;84.66
50087;BME280;35967;50.718;7.050;2022-11-20T22:42:44;99618.00;;;8.25;84.44
50087;BME280;35967;50.718;7.050;2022-11-20T22:52:47;99624.81;;;8.26;83.79
50087;BME280;35967;50.718;7.050;2022-11-20T23:02:52;99645.38;;;8.24;83.76
50087;BME280;35967;50.718;7.050;2022-11-20T23:12:55;99662.19;;;8.33;83.80
50087;BME280;35967;50.718;7.050;2022-11-20T23:22:59;99657.00;;;8.36;84.31
50087;BME280;35967;50.718;7.050;2022-11-20T23:33:03;99668.00;;;8.40;84.84
50087;BME280;35967;50.718;7.050;2022-11-20T23:43:07;99673.97;;;8.40;83.84
50087;BME280;35967;50.718;7.050;2022-11-20T23:53:17;99674.00;;;8.39;82.20
